createdAt,value
2022-08-13T00:00:11.003Z,31.69
2022-08-13T00:00:34.043Z,31.68
2022-08-13T00:01:00.933Z,31.67
2022-08-13T00:01:24.219Z,31.67
2022-08-13T00:01:45.998Z,31.67
2022-08-13T00:02:11.159Z,31.67
2022-08-13T00:02:44.504Z,31.63
2022-08-13T00:03:15.409Z,31.60
2022-08-13T00:04:02.857Z,31.61
2022-08-13T00:04:30.341Z,31.63
2022-08-13T00:04:56.540Z,31.57
2022-08-13T00:05:42.776Z,31.60
2022-08-13T00:06:14.674Z,31.55
2022-08-13T00:07:02.200Z,31.55
2022-08-13T00:07:25.242Z,31.56
2022-08-13T00:07:47.983Z,31.57
2022-08-13T00:08:11.136Z,31.56
2022-08-13T00:08:34.726Z,31.54
2022-08-13T00:08:59.394Z,31.53
2022-08-13T00:09:24.650Z,31.46
2022-08-13T00:10:01.387Z,31.47
2022-08-13T00:10:25.941Z,31.41
2022-08-13T00:10:47.596Z,31.33
2022-08-13T00:11:09.993Z,31.36
2022-08-13T00:11:59.559Z,31.36
2022-08-13T00:12:46.096Z,31.38
2022-08-13T00:13:18.240Z,31.37
2022-08-13T00:13:43.290Z,31.38
2022-08-13T00:14:05.820Z,31.37
2022-08-13T00:14:35.281Z,31.39
2022-08-13T00:15:01.385Z,31.39
2022-08-13T00:15:27.434Z,31.42
2022-08-13T00:15:49.140Z,31.43
2022-08-13T00:16:17.514Z,31.42
2022-08-13T00:16:43.006Z,31.38
2022-08-13T00:17:14.004Z,31.43
2022-08-13T00:18:02.628Z,31.46
2022-08-13T00:18:29.994Z,31.45
2022-08-13T00:18:52.336Z,31.48
2022-08-13T00:19:14.064Z,31.42
2022-08-13T00:19:37.409Z,31.50
2022-08-13T00:19:59.173Z,31.52
2022-08-13T00:21:03.265Z,31.51
2022-08-13T00:21:58.064Z,31.51
2022-08-13T00:22:40.026Z,31.51
2022-08-13T00:22:55.047Z,31.51
2022-08-13T00:23:24.618Z,31.51
2022-08-13T00:24:06.874Z,31.49
2022-08-13T00:24:52.581Z,31.43
2022-08-13T00:25:15.890Z,31.43
2022-08-13T00:25:45.582Z,31.45
2022-08-13T00:26:08.536Z,31.45
2022-08-13T00:26:34.491Z,31.45
2022-08-13T00:27:00.580Z,31.38
2022-08-13T00:27:24.624Z,31.39
2022-08-13T00:28:02.137Z,31.41
2022-08-13T00:28:26.722Z,31.45
2022-08-13T00:28:50.590Z,31.30
2022-08-13T00:29:12.257Z,31.44
2022-08-13T00:29:33.956Z,31.46
2022-08-13T00:29:57.605Z,31.47
2022-08-13T00:30:27.028Z,31.47
2022-08-13T00:30:54.637Z,31.48
2022-08-13T00:31:16.617Z,31.45
2022-08-13T00:31:51.002Z,31.43
2022-08-13T00:32:12.872Z,31.47
2022-08-13T00:32:39.261Z,31.48
2022-08-13T00:33:02.688Z,31.39
2022-08-13T00:33:33.525Z,31.42
2022-08-13T00:34:04.861Z,31.43
2022-08-13T00:34:28.321Z,31.40
2022-08-13T00:34:50.898Z,31.45
2022-08-13T00:35:18.046Z,31.47
2022-08-13T00:35:50.890Z,31.47
2022-08-13T00:36:22.535Z,31.47
2022-08-13T00:36:51.913Z,31.45
2022-08-13T00:37:34.280Z,31.45
2022-08-13T00:38:12.612Z,31.45
2022-08-13T00:38:37.029Z,31.43
2022-08-13T00:38:59.368Z,31.42
2022-08-13T00:39:21.745Z,31.43
2022-08-13T00:40:19.334Z,31.43
2022-08-13T00:40:33.069Z,31.41
2022-08-13T00:40:58.597Z,31.33
2022-08-13T00:41:57.659Z,31.29
2022-08-13T00:42:21.811Z,31.29
2022-08-13T00:42:51.061Z,31.29
2022-08-13T00:43:15.354Z,31.31
2022-08-13T00:43:39.059Z,31.32
2022-08-13T00:44:00.903Z,31.32
2022-08-13T00:44:24.135Z,31.33
2022-08-13T00:44:46.851Z,31.36
2022-08-13T00:45:14.626Z,31.35
2022-08-13T00:45:37.032Z,31.36
2022-08-13T00:45:59.837Z,31.36
2022-08-13T00:46:22.398Z,31.39
2022-08-13T00:46:46.300Z,31.39
2022-08-13T00:47:28.357Z,31.31
2022-08-13T00:48:09.718Z,31.32
2022-08-13T00:48:45.748Z,31.33
2022-08-13T00:49:14.648Z,31.32
2022-08-13T00:49:36.868Z,31.32
2022-08-13T00:50:01.384Z,31.34
2022-08-13T00:50:23.688Z,31.31
2022-08-13T00:50:48.199Z,31.32
2022-08-13T00:51:11.953Z,31.34
2022-08-13T00:51:58.893Z,31.33
2022-08-13T00:52:21.822Z,31.33
2022-08-13T00:52:44.362Z,31.36
2022-08-13T00:53:06.106Z,31.32
2022-08-13T00:53:42.347Z,31.28
2022-08-13T00:54:10.682Z,31.29
2022-08-13T00:54:33.252Z,31.28
2022-08-13T00:54:55.469Z,31.32
2022-08-13T00:55:24.070Z,31.30
2022-08-13T00:55:49.598Z,31.29
2022-08-13T00:56:12.966Z,31.31
2022-08-13T00:56:36.165Z,31.31
2022-08-13T00:56:58.791Z,31.32
2022-08-13T00:57:20.427Z,31.33
2022-08-13T00:57:53.283Z,31.33
2022-08-13T00:58:17.925Z,31.33
2022-08-13T00:58:42.356Z,31.30
2022-08-13T00:59:08.776Z,31.31
2022-08-13T00:59:35.771Z,31.31
2022-08-13T01:00:12.619Z,31.27
2022-08-13T01:00:34.448Z,31.27
2022-08-13T01:00:58.763Z,31.27
2022-08-13T01:01:35.014Z,31.27
2022-08-13T01:01:58.147Z,31.24
2022-08-13T01:02:21.968Z,31.26
2022-08-13T01:02:57.307Z,31.24
2022-08-13T01:03:56.771Z,31.25
2022-08-13T01:04:11.149Z,31.20
2022-08-13T01:04:34.888Z,31.17
2022-08-13T01:04:58.148Z,31.18
2022-08-13T01:05:21.005Z,31.17
2022-08-13T01:05:44.510Z,31.18
2022-08-13T01:06:09.254Z,31.17
2022-08-13T01:06:33.062Z,31.15
2022-08-13T01:06:57.137Z,31.14
2022-08-13T01:07:52.457Z,31.16
2022-08-13T01:08:03.224Z,31.10
2022-08-13T01:08:32.521Z,31.09
2022-08-13T01:08:59.428Z,31.10
2022-08-13T01:10:15.770Z,31.06
2022-08-13T01:10:16.784Z,31.07
2022-08-13T01:10:43.165Z,31.02
2022-08-13T01:11:22.761Z,31.06
2022-08-13T01:11:47.088Z,31.05
2022-08-13T01:12:16.905Z,31.00
2022-08-13T01:12:39.746Z,30.96
2022-08-13T01:13:04.371Z,30.96
2022-08-13T01:13:28.739Z,30.95
2022-08-13T01:13:54.860Z,30.94
2022-08-13T01:14:18.032Z,30.93
2022-08-13T01:14:42.578Z,30.81
2022-08-13T01:15:09.420Z,30.97
2022-08-13T01:15:52.529Z,30.95
2022-08-13T01:16:15.988Z,30.93
2022-08-13T01:16:39.253Z,30.95
2022-08-13T01:17:07.230Z,30.96
2022-08-13T01:17:47.045Z,30.97
2022-08-13T01:18:14.712Z,30.95
2022-08-13T01:18:37.540Z,30.97
2022-08-13T01:19:04.439Z,30.97
2022-08-13T01:19:52.077Z,30.87
2022-08-13T01:20:32.816Z,30.91
2022-08-13T01:20:59.396Z,30.91
2022-08-13T01:21:39.994Z,30.87
2022-08-13T01:22:06.166Z,30.82
2022-08-13T01:22:33.697Z,30.84
2022-08-13T01:22:57.082Z,30.85
2022-08-13T01:23:18.919Z,30.82
2022-08-13T01:24:02.217Z,30.82
2022-08-13T01:24:25.958Z,30.82
2022-08-13T01:24:47.642Z,30.80
2022-08-13T01:25:10.306Z,30.82
2022-08-13T01:25:52.796Z,30.78
2022-08-13T01:26:20.242Z,30.72
2022-08-13T01:26:46.913Z,30.73
2022-08-13T01:27:11.056Z,30.71
2022-08-13T01:27:33.759Z,30.67
2022-08-13T01:27:56.544Z,30.70
2022-08-13T01:28:19.808Z,30.71
2022-08-13T01:28:42.243Z,30.68
2022-08-13T01:29:10.838Z,30.71
2022-08-13T01:29:37.042Z,30.72
2022-08-13T01:30:04.917Z,30.71
2022-08-13T01:30:26.837Z,30.72
2022-08-13T01:30:54.760Z,30.69
2022-08-13T01:31:19.337Z,30.74
2022-08-13T01:31:42.724Z,30.75
2022-08-13T01:32:08.421Z,30.74
2022-08-13T01:32:54.724Z,30.73
2022-08-13T01:33:19.031Z,30.70
2022-08-13T01:33:48.390Z,30.69
2022-08-13T01:34:24.478Z,30.69
2022-08-13T01:34:52.117Z,30.65
2022-08-13T01:35:16.593Z,30.60
2022-08-13T01:35:42.422Z,30.57
2022-08-13T01:36:05.900Z,30.60
2022-08-13T01:36:55.428Z,30.61
2022-08-13T01:37:21.309Z,30.58
2022-08-13T01:38:03.816Z,30.58
2022-08-13T01:38:28.987Z,30.55
2022-08-13T01:38:50.956Z,30.52
2022-08-13T01:39:17.844Z,30.53
2022-08-13T01:39:45.256Z,30.53
2022-08-13T01:40:09.781Z,30.53
2022-08-13T01:40:32.304Z,30.53
2022-08-13T01:40:54.089Z,30.40
2022-08-13T01:41:16.817Z,30.47
2022-08-13T01:41:54.463Z,30.49
2022-08-13T01:42:21.463Z,30.50
2022-08-13T01:42:59.301Z,30.49
2022-08-13T01:43:51.626Z,30.45
2022-08-13T01:44:18.854Z,30.45
2022-08-13T01:44:41.968Z,30.46
2022-08-13T01:45:05.410Z,30.47
2022-08-13T01:45:28.108Z,30.43
2022-08-13T01:45:53.063Z,30.47
2022-08-13T01:46:17.876Z,30.49
2022-08-13T01:46:58.388Z,30.45
2022-08-13T01:47:53.767Z,30.46
2022-08-13T01:48:41.271Z,30.50
2022-08-13T01:49:24.548Z,30.50
2022-08-13T01:50:29.000Z,30.43
2022-08-13T01:50:54.852Z,30.39
2022-08-13T01:51:23.332Z,30.40
2022-08-13T01:51:52.040Z,30.40
2022-08-13T01:52:13.887Z,30.37
2022-08-13T01:52:43.385Z,30.39
2022-08-13T01:53:09.259Z,30.40
2022-08-13T01:53:31.116Z,30.39
2022-08-13T01:53:59.272Z,30.42
2022-08-13T01:54:38.038Z,30.40
2022-08-13T01:55:02.898Z,30.40
2022-08-13T01:56:04.634Z,30.41
2022-08-13T01:56:19.073Z,30.39
2022-08-13T01:56:42.121Z,30.38
2022-08-13T01:57:06.990Z,30.36
2022-08-13T01:57:44.252Z,30.39
2022-08-13T01:58:08.301Z,30.36
2022-08-13T01:58:33.883Z,30.40
2022-08-13T01:59:08.998Z,30.41
2022-08-13T02:00:00.421Z,30.43
2022-08-13T02:00:27.561Z,30.45
2022-08-13T02:00:52.177Z,30.43
2022-08-13T02:01:15.126Z,30.38
2022-08-13T02:01:41.563Z,30.41
2022-08-13T02:02:05.697Z,30.41
2022-08-13T02:02:49.590Z,30.33
2022-08-13T02:03:13.973Z,30.28
2022-08-13T02:03:41.815Z,30.27
2022-08-13T02:04:07.505Z,30.27
2022-08-13T02:04:33.508Z,30.28
2022-08-13T02:05:01.699Z,30.32
2022-08-13T02:06:19.982Z,30.29
2022-08-13T02:06:23.125Z,30.30
2022-08-13T02:06:50.581Z,30.24
2022-08-13T02:07:16.984Z,30.25
2022-08-13T02:08:02.375Z,30.25
2022-08-13T02:08:25.036Z,30.26
2022-08-13T02:08:51.254Z,30.26
2022-08-13T02:09:23.639Z,30.25
2022-08-13T02:10:00.132Z,30.23
2022-08-13T02:10:23.650Z,30.25
2022-08-13T02:10:48.351Z,30.25
2022-08-13T02:11:11.948Z,30.26
2022-08-13T02:11:35.639Z,30.27
2022-08-13T02:12:10.564Z,30.26
2022-08-13T02:12:35.526Z,30.22
2022-08-13T02:12:58.214Z,30.23
2022-08-13T02:13:25.622Z,30.23
2022-08-13T02:13:50.010Z,30.22
2022-08-13T02:14:14.995Z,30.24
2022-08-13T02:14:46.381Z,30.23
2022-08-13T02:15:10.153Z,30.26
2022-08-13T02:15:42.127Z,30.25
2022-08-13T02:16:04.565Z,30.24
2022-08-13T02:16:33.027Z,30.25
2022-08-13T02:16:54.883Z,30.21
2022-08-13T02:18:00.776Z,30.26
2022-08-13T02:18:19.759Z,30.24
2022-08-13T02:18:41.701Z,30.21
2022-08-13T02:19:19.320Z,30.19
2022-08-13T02:19:46.520Z,30.07
2022-08-13T02:20:10.742Z,30.05
2022-08-13T02:20:36.226Z,30.08
2022-08-13T02:21:00.531Z,30.09
2022-08-13T02:21:23.785Z,30.07
2022-08-13T02:21:45.712Z,30.08
2022-08-13T02:22:07.737Z,30.06
2022-08-13T02:22:31.218Z,30.08
2022-08-13T02:22:54.909Z,30.07
2022-08-13T02:23:20.555Z,30.06
2022-08-13T02:24:04.774Z,30.08
2022-08-13T02:24:26.600Z,30.10
2022-08-13T02:24:52.424Z,30.14
2022-08-13T02:25:16.664Z,30.11
2022-08-13T02:25:39.269Z,30.13
2022-08-13T02:26:02.066Z,30.12
2022-08-13T02:26:26.759Z,30.13
2022-08-13T02:26:54.697Z,30.11
2022-08-13T02:27:17.021Z,30.11
2022-08-13T02:27:39.584Z,30.09
2022-08-13T02:28:03.235Z,30.06
2022-08-13T02:28:27.112Z,30.06
2022-08-13T02:28:49.572Z,30.08
2022-08-13T02:29:13.535Z,30.09
2022-08-13T02:29:35.673Z,30.12
2022-08-13T02:29:58.036Z,30.11
2022-08-13T02:30:20.741Z,30.12
2022-08-13T02:30:43.548Z,30.03
2022-08-13T02:31:08.290Z,30.06
2022-08-13T02:32:16.119Z,30.06
2022-08-13T02:32:26.073Z,30.08
2022-08-13T02:32:51.460Z,30.09
2022-08-13T02:33:17.799Z,30.11
2022-08-13T02:33:43.128Z,30.12
2022-08-13T02:34:08.708Z,30.11
2022-08-13T02:34:37.184Z,30.09
2022-08-13T02:34:59.509Z,30.06
2022-08-13T02:35:26.142Z,30.07
2022-08-13T02:36:01.051Z,30.07
2022-08-13T02:36:26.316Z,29.96
2022-08-13T02:36:56.204Z,30.02
2022-08-13T02:37:46.031Z,29.98
2022-08-13T02:38:16.000Z,29.92
2022-08-13T02:38:38.886Z,29.89
2022-08-13T02:39:05.914Z,29.92
2022-08-13T02:39:43.039Z,29.92
2022-08-13T02:40:31.013Z,29.97
2022-08-13T02:41:15.261Z,29.98
2022-08-13T02:41:52.140Z,29.96
2022-08-13T02:42:15.953Z,29.97
2022-08-13T02:42:38.317Z,29.95
2022-08-13T02:43:03.419Z,29.96
2022-08-13T02:43:26.570Z,29.95
2022-08-13T02:43:57.566Z,29.94
2022-08-13T02:44:23.794Z,29.92
2022-08-13T02:44:58.042Z,29.88
2022-08-13T02:45:21.691Z,29.92
2022-08-13T02:45:46.219Z,29.91
2022-08-13T02:46:08.203Z,29.92
2022-08-13T02:46:29.899Z,29.90
2022-08-13T02:46:52.591Z,29.83
2022-08-13T02:47:14.734Z,29.85
2022-08-13T02:47:44.477Z,29.86
2022-08-13T02:48:09.199Z,29.88
2022-08-13T02:48:41.284Z,29.80
2022-08-13T02:49:03.645Z,29.88
2022-08-13T02:49:44.428Z,29.90
2022-08-13T02:50:11.179Z,29.91
2022-08-13T02:50:45.344Z,29.93
2022-08-13T02:51:14.192Z,29.78
2022-08-13T02:52:08.102Z,29.93
2022-08-13T02:52:21.143Z,29.87
2022-08-13T02:52:49.916Z,29.97
2022-08-13T02:53:30.412Z,30.00
2022-08-13T02:53:55.446Z,30.00
2022-08-13T02:54:21.853Z,29.90
2022-08-13T02:54:54.848Z,29.92
2022-08-13T02:55:19.405Z,29.92
2022-08-13T02:55:42.773Z,29.92
2022-08-13T02:56:10.604Z,29.90
2022-08-13T02:56:34.051Z,29.90
2022-08-13T02:56:55.854Z,29.90
2022-08-13T02:57:18.957Z,29.89
2022-08-13T02:57:40.612Z,29.81
2022-08-13T02:58:05.521Z,29.89
2022-08-13T02:58:27.416Z,29.91
2022-08-13T02:58:50.262Z,29.90
2022-08-13T02:59:42.806Z,29.91
2022-08-13T03:00:05.425Z,29.91
2022-08-13T03:00:31.848Z,29.90
2022-08-13T03:00:58.905Z,29.90
2022-08-13T03:01:21.542Z,29.90
2022-08-13T03:01:54.917Z,29.83
2022-08-13T03:02:20.532Z,29.88
2022-08-13T03:02:46.148Z,29.89
2022-08-13T03:03:11.341Z,29.84
2022-08-13T03:03:39.480Z,29.86
2022-08-13T03:04:02.715Z,29.85
2022-08-13T03:04:32.585Z,29.83
2022-08-13T03:04:54.892Z,29.81
2022-08-13T03:05:19.514Z,29.80
2022-08-13T03:05:51.360Z,29.80
2022-08-13T03:06:22.180Z,29.78
2022-08-13T03:06:46.281Z,29.82
2022-08-13T03:07:15.763Z,29.81
2022-08-13T03:07:51.568Z,29.83
2022-08-13T03:08:16.471Z,29.83
2022-08-13T03:09:00.064Z,29.76
2022-08-13T03:09:23.909Z,29.88
2022-08-13T03:09:46.872Z,29.89
2022-08-13T03:10:13.203Z,29.89
2022-08-13T03:10:40.225Z,29.88
2022-08-13T03:11:02.751Z,29.87
2022-08-13T03:11:24.549Z,29.88
2022-08-13T03:11:56.429Z,29.89
2022-08-13T03:12:28.952Z,29.89
2022-08-13T03:13:05.528Z,29.89
2022-08-13T03:13:30.896Z,29.87
2022-08-13T03:14:09.654Z,29.90
2022-08-13T03:14:33.377Z,29.87
2022-08-13T03:14:56.437Z,29.87
2022-08-13T03:15:19.610Z,29.86
2022-08-13T03:15:55.050Z,29.80
2022-08-13T03:16:27.856Z,29.77
2022-08-13T03:16:49.676Z,29.79
2022-08-13T03:17:22.667Z,29.78
2022-08-13T03:17:46.214Z,29.77
2022-08-13T03:18:15.815Z,29.74
2022-08-13T03:18:51.804Z,29.70
2022-08-13T03:19:16.622Z,29.71
2022-08-13T03:19:39.091Z,29.74
2022-08-13T03:20:10.153Z,29.68
2022-08-13T03:20:36.445Z,29.67
2022-08-13T03:20:59.728Z,29.69
2022-08-13T03:21:40.941Z,29.69
2022-08-13T03:22:07.274Z,29.72
2022-08-13T03:22:28.929Z,29.72
2022-08-13T03:22:52.489Z,29.72
2022-08-13T03:23:14.341Z,29.70
2022-08-13T03:23:43.508Z,29.68
2022-08-13T03:24:08.379Z,29.71
2022-08-13T03:24:31.867Z,29.71
2022-08-13T03:24:54.529Z,29.71
2022-08-13T03:25:17.195Z,29.70
2022-08-13T03:25:41.241Z,29.67
2022-08-13T03:26:05.815Z,29.68
2022-08-13T03:26:27.683Z,29.69
2022-08-13T03:26:53.077Z,29.69
2022-08-13T03:27:16.859Z,29.70
2022-08-13T03:27:40.212Z,29.70
2022-08-13T03:28:03.356Z,29.69
2022-08-13T03:28:26.216Z,29.71
2022-08-13T03:28:55.693Z,29.72
2022-08-13T03:29:19.197Z,29.73
2022-08-13T03:30:03.927Z,29.72
2022-08-13T03:30:30.838Z,29.70
2022-08-13T03:30:55.429Z,29.71
2022-08-13T03:31:18.331Z,29.69
2022-08-13T03:31:52.544Z,29.70
2022-08-13T03:32:31.680Z,29.67
2022-08-13T03:32:54.976Z,29.67
2022-08-13T03:33:18.845Z,29.68
2022-08-13T03:34:03.498Z,29.67
2022-08-13T03:34:25.104Z,29.62
2022-08-13T03:34:50.399Z,29.61
2022-08-13T03:35:17.130Z,29.60
2022-08-13T03:35:58.840Z,29.59
2022-08-13T03:36:21.543Z,29.60
2022-08-13T03:36:45.605Z,29.61
2022-08-13T03:37:08.246Z,29.59
2022-08-13T03:37:29.876Z,29.53
2022-08-13T03:38:01.118Z,29.62
2022-08-13T03:38:23.199Z,29.64
2022-08-13T03:38:47.979Z,29.66
2022-08-13T03:39:09.690Z,29.68
2022-08-13T03:39:33.941Z,29.69
2022-08-13T03:40:01.771Z,29.68
2022-08-13T03:40:25.982Z,29.67
2022-08-13T03:41:12.470Z,29.69
2022-08-13T03:41:39.644Z,29.67
2022-08-13T03:42:19.788Z,29.65
2022-08-13T03:42:54.597Z,29.70
2022-08-13T03:43:16.471Z,29.67
2022-08-13T03:43:54.088Z,29.56
2022-08-13T03:44:17.003Z,29.64
2022-08-13T03:44:42.084Z,29.64
2022-08-13T03:45:04.942Z,29.64
2022-08-13T03:45:28.474Z,29.63
2022-08-13T03:45:50.657Z,29.61
2022-08-13T03:46:18.027Z,29.55
2022-08-13T03:46:39.840Z,29.54
2022-08-13T03:47:01.510Z,29.54
2022-08-13T03:47:30.090Z,29.38
2022-08-13T03:47:54.605Z,29.52
2022-08-13T03:48:17.236Z,29.53
2022-08-13T03:48:39.419Z,29.57
2022-08-13T03:49:03.558Z,29.56
2022-08-13T03:49:29.135Z,29.55
2022-08-13T03:49:52.226Z,29.53
2022-08-13T03:50:15.532Z,29.53
2022-08-13T03:50:37.834Z,29.54
2022-08-13T03:51:02.528Z,29.55
2022-08-13T03:51:35.608Z,29.45
2022-08-13T03:51:59.579Z,29.47
2022-08-13T03:52:33.527Z,29.49
2022-08-13T03:53:02.630Z,29.40
2022-08-13T03:53:29.477Z,29.41
2022-08-13T03:54:05.098Z,29.40
2022-08-13T03:54:26.817Z,29.41
2022-08-13T03:54:50.865Z,29.40
2022-08-13T03:55:20.096Z,29.32
2022-08-13T03:55:44.102Z,29.40
2022-08-13T03:56:10.403Z,29.29
2022-08-13T03:56:36.292Z,29.38
2022-08-13T03:57:01.675Z,29.40
2022-08-13T03:57:24.111Z,29.41
2022-08-13T03:58:02.386Z,29.42
2022-08-13T03:58:30.726Z,29.41
2022-08-13T03:58:54.783Z,29.42
2022-08-13T03:59:18.761Z,29.40
2022-08-13T03:59:48.988Z,29.40
2022-08-13T04:00:13.335Z,29.39
2022-08-13T04:00:38.191Z,29.40
2022-08-13T04:01:02.628Z,29.41
2022-08-13T04:01:26.113Z,29.41
2022-08-13T04:01:57.086Z,29.40
2022-08-13T04:02:19.404Z,29.41
2022-08-13T04:02:43.609Z,29.38
2022-08-13T04:03:15.498Z,29.37
2022-08-13T04:03:43.374Z,29.35
2022-08-13T04:04:09.784Z,29.41
2022-08-13T04:04:36.045Z,29.36
2022-08-13T04:04:58.049Z,29.44
2022-08-13T04:05:21.101Z,29.41
2022-08-13T04:06:03.416Z,29.43
2022-08-13T04:06:27.549Z,29.42
2022-08-13T04:06:49.334Z,29.42
2022-08-13T04:07:12.624Z,29.43
2022-08-13T04:07:41.302Z,29.34
2022-08-13T04:08:09.705Z,29.36
2022-08-13T04:08:38.266Z,29.43
2022-08-13T04:09:04.701Z,29.39
2022-08-13T04:09:27.538Z,29.36
2022-08-13T04:09:55.118Z,29.35
2022-08-13T04:10:21.834Z,29.33
2022-08-13T04:10:50.545Z,29.36
2022-08-13T04:11:20.475Z,29.30
2022-08-13T04:11:44.439Z,29.24
2022-08-13T04:12:11.490Z,29.26
2022-08-13T04:12:35.642Z,29.27
2022-08-13T04:13:00.384Z,29.27
2022-08-13T04:14:05.033Z,29.27
2022-08-13T04:14:36.168Z,29.23
2022-08-13T04:14:50.013Z,29.22
2022-08-13T04:15:23.897Z,29.21
2022-08-13T04:15:47.074Z,29.19
2022-08-13T04:16:12.328Z,29.20
2022-08-13T04:16:34.571Z,29.22
2022-08-13T04:16:57.694Z,29.21
2022-08-13T04:17:25.541Z,29.19
2022-08-13T04:17:50.184Z,29.20
2022-08-13T04:18:14.591Z,29.18
2022-08-13T04:18:37.923Z,29.15
2022-08-13T04:19:02.020Z,29.16
2022-08-13T04:19:28.090Z,29.17
2022-08-13T04:19:49.747Z,29.15
2022-08-13T04:20:13.393Z,29.13
2022-08-13T04:20:36.029Z,29.13
2022-08-13T04:20:59.005Z,29.12
2022-08-13T04:21:22.965Z,29.13
2022-08-13T04:21:44.736Z,29.13
2022-08-13T04:22:11.328Z,29.14
2022-08-13T04:22:34.184Z,29.15
2022-08-13T04:22:57.944Z,29.16
2022-08-13T04:23:20.367Z,29.13
2022-08-13T04:23:43.333Z,29.12
2022-08-13T04:24:15.875Z,29.11
2022-08-13T04:24:38.230Z,29.11
2022-08-13T04:25:27.374Z,29.12
2022-08-13T04:25:50.715Z,29.07
2022-08-13T04:26:15.133Z,29.06
2022-08-13T04:26:52.355Z,29.08
2022-08-13T04:27:15.378Z,29.09
2022-08-13T04:27:40.222Z,29.10
2022-08-13T04:28:03.225Z,29.12
2022-08-13T04:28:25.582Z,29.15
2022-08-13T04:28:48.467Z,29.14
2022-08-13T04:29:12.732Z,29.16
2022-08-13T04:29:49.812Z,29.15
2022-08-13T04:30:17.494Z,29.16
2022-08-13T04:30:42.650Z,29.13
2022-08-13T04:31:06.373Z,29.16
2022-08-13T04:31:45.919Z,29.18
2022-08-13T04:32:09.703Z,29.21
2022-08-13T04:32:57.861Z,29.21
2022-08-13T04:34:30.529Z,29.16
2022-08-13T04:34:31.482Z,29.22
2022-08-13T04:34:58.405Z,29.17
2022-08-13T04:35:31.463Z,29.15
2022-08-13T04:36:02.700Z,29.16
2022-08-13T04:36:28.330Z,29.17
2022-08-13T04:36:50.694Z,29.12
2022-08-13T04:37:21.170Z,29.13
2022-08-13T04:37:45.724Z,29.18
2022-08-13T04:38:08.777Z,29.18
2022-08-13T04:38:31.000Z,29.19
2022-08-13T04:38:52.630Z,29.18
2022-08-13T04:39:15.172Z,29.20
2022-08-13T04:40:07.552Z,29.19
2022-08-13T04:40:29.897Z,29.19
2022-08-13T04:40:54.271Z,29.18
2022-08-13T04:41:17.529Z,29.24
2022-08-13T04:41:39.425Z,29.26
2022-08-13T04:42:01.358Z,29.16
2022-08-13T04:42:33.449Z,29.16
2022-08-13T04:42:59.431Z,29.18
2022-08-13T04:43:21.148Z,29.19
2022-08-13T04:43:45.850Z,29.23
2022-08-13T04:44:22.651Z,29.25
2022-08-13T04:44:50.730Z,29.23
2022-08-13T04:45:14.816Z,29.23
2022-08-13T04:45:37.256Z,29.23
2022-08-13T04:46:01.480Z,29.21
2022-08-13T04:46:29.093Z,29.24
2022-08-13T04:46:51.872Z,29.24
2022-08-13T04:47:15.261Z,29.24
2022-08-13T04:47:37.555Z,29.24
2022-08-13T04:48:04.797Z,29.26
2022-08-13T04:48:29.269Z,29.25
2022-08-13T04:48:50.901Z,29.20
2022-08-13T04:49:13.308Z,29.19
2022-08-13T04:49:38.282Z,29.21
2022-08-13T04:50:09.923Z,29.22
2022-08-13T04:50:36.293Z,29.23
2022-08-13T04:50:58.160Z,29.21
2022-08-13T04:51:24.211Z,29.21
2022-08-13T04:51:45.992Z,29.16
2022-08-13T04:52:08.603Z,29.15
2022-08-13T04:52:30.868Z,29.13
2022-08-13T04:52:52.879Z,29.12
2022-08-13T04:53:27.759Z,29.14
2022-08-13T04:53:50.980Z,29.11
2022-08-13T04:54:12.865Z,29.08
2022-08-13T04:54:34.572Z,29.08
2022-08-13T04:54:56.230Z,29.06
2022-08-13T04:55:20.579Z,29.05
2022-08-13T04:56:08.591Z,29.06
2022-08-13T04:56:26.963Z,29.05
2022-08-13T04:56:49.765Z,29.05
2022-08-13T04:57:11.867Z,29.07
2022-08-13T04:57:56.718Z,29.07
2022-08-13T04:58:16.861Z,29.07
2022-08-13T04:58:38.661Z,29.06
2022-08-13T04:59:03.015Z,29.06
2022-08-13T04:59:25.527Z,29.06
2022-08-13T04:59:52.697Z,29.08
2022-08-13T05:00:21.468Z,29.09
2022-08-13T05:00:50.697Z,29.10
2022-08-13T05:01:53.932Z,29.08
2022-08-13T05:02:01.369Z,29.05
2022-08-13T05:02:24.916Z,29.04
2022-08-13T05:02:48.032Z,29.06
2022-08-13T05:03:12.991Z,29.07
2022-08-13T05:03:43.808Z,29.08
2022-08-13T05:04:17.809Z,29.05
2022-08-13T05:04:52.221Z,29.08
2022-08-13T05:05:17.780Z,29.07
2022-08-13T05:05:42.472Z,29.07
2022-08-13T05:06:05.758Z,29.03
2022-08-13T05:06:30.551Z,28.96
2022-08-13T05:06:53.129Z,28.99
2022-08-13T05:07:16.320Z,28.99
2022-08-13T05:07:39.216Z,29.03
2022-08-13T05:08:01.869Z,29.04
2022-08-13T05:08:27.169Z,29.06
2022-08-13T05:08:55.771Z,29.08
2022-08-13T05:09:17.848Z,29.10
2022-08-13T05:09:39.636Z,29.03
2022-08-13T05:10:12.084Z,29.01
2022-08-13T05:10:39.597Z,29.03
2022-08-13T05:11:03.816Z,29.06
2022-08-13T05:11:37.130Z,29.05
2022-08-13T05:12:04.806Z,29.04
2022-08-13T05:12:42.584Z,29.05
2022-08-13T05:13:22.483Z,29.03
2022-08-13T05:13:45.170Z,28.93
2022-08-13T05:14:09.933Z,29.03
2022-08-13T05:14:37.513Z,29.03
2022-08-13T05:14:59.675Z,29.04
2022-08-13T05:15:41.532Z,29.06
2022-08-13T05:16:07.415Z,29.02
2022-08-13T05:16:29.470Z,29.02
2022-08-13T05:16:53.954Z,29.05
2022-08-13T05:17:21.813Z,29.02
2022-08-13T05:17:46.953Z,29.05
2022-08-13T05:18:10.058Z,29.07
2022-08-13T05:18:47.242Z,29.09
2022-08-13T05:19:10.032Z,29.06
2022-08-13T05:19:39.227Z,29.06
2022-08-13T05:20:01.318Z,29.07
2022-08-13T05:20:35.512Z,29.06
2022-08-13T05:21:04.472Z,29.08
2022-08-13T05:21:59.953Z,29.10
2022-08-13T05:22:17.734Z,29.09
2022-08-13T05:24:41.136Z,29.08
2022-08-13T05:26:08.151Z,29.09
2022-08-13T05:26:19.762Z,29.08
2022-08-13T05:26:20.965Z,29.09
2022-08-13T05:26:22.376Z,29.08
2022-08-13T05:26:36.527Z,29.12
2022-08-13T05:27:10.793Z,29.09
2022-08-13T05:27:33.180Z,29.09
2022-08-13T05:27:57.452Z,29.09
2022-08-13T05:28:30.240Z,29.08
2022-08-13T05:28:52.729Z,29.06
2022-08-13T05:29:51.092Z,29.03
2022-08-13T05:30:30.451Z,29.03
2022-08-13T05:30:55.424Z,29.05
2022-08-13T05:31:21.532Z,29.06
2022-08-13T05:31:55.748Z,29.06
2022-08-13T05:32:20.549Z,29.06
2022-08-13T05:32:42.433Z,29.08
2022-08-13T05:33:15.642Z,29.02
2022-08-13T05:33:43.975Z,29.04
2022-08-13T05:34:20.184Z,29.07
2022-08-13T05:34:41.899Z,29.09
2022-08-13T05:35:06.746Z,29.08
2022-08-13T05:38:09.826Z,29.06
2022-08-13T05:38:10.178Z,28.99
2022-08-13T05:38:15.592Z,29.06
2022-08-13T05:38:20.070Z,29.10
2022-08-13T05:38:26.740Z,29.11
2022-08-13T05:38:55.814Z,29.08
2022-08-13T05:39:17.480Z,29.11
2022-08-13T05:39:43.313Z,29.13
2022-08-13T05:40:11.418Z,29.11
2022-08-13T05:40:38.038Z,29.09
2022-08-13T05:41:01.195Z,29.09
2022-08-13T05:41:26.770Z,29.11
2022-08-13T05:42:06.137Z,29.11
2022-08-13T05:42:29.263Z,29.08
2022-08-13T05:42:50.866Z,29.12
2022-08-13T05:43:15.104Z,29.09
2022-08-13T05:43:37.297Z,29.09
2022-08-13T05:43:59.061Z,29.12
2022-08-13T05:44:23.757Z,29.11
2022-08-13T05:44:50.003Z,29.13
2022-08-13T05:45:18.212Z,29.13
2022-08-13T05:45:46.881Z,29.15
2022-08-13T05:46:15.693Z,29.16
2022-08-13T05:46:38.591Z,29.16
2022-08-13T05:47:00.321Z,29.15
2022-08-13T05:47:24.827Z,29.16
2022-08-13T05:47:51.523Z,29.16
2022-08-13T05:48:14.061Z,29.17
2022-08-13T05:48:37.399Z,29.20
2022-08-13T05:48:59.725Z,29.15
2022-08-13T05:49:23.740Z,29.18
2022-08-13T05:50:14.583Z,29.13
2022-08-13T05:50:40.280Z,29.11
2022-08-13T05:51:04.628Z,29.16
2022-08-13T05:52:34.889Z,29.17
2022-08-13T05:52:56.067Z,29.14
2022-08-13T05:52:59.173Z,29.13
2022-08-13T05:53:19.076Z,29.08
2022-08-13T05:56:04.279Z,29.18
2022-08-13T05:56:11.275Z,29.15
2022-08-13T05:56:12.635Z,29.16
2022-08-13T05:56:12.904Z,29.14
2022-08-13T05:56:38.820Z,29.13
2022-08-13T05:57:00.462Z,29.14
2022-08-13T05:57:22.114Z,29.16
2022-08-13T05:57:44.225Z,29.19
2022-08-13T05:58:13.443Z,29.23
2022-08-13T05:58:36.450Z,29.24
2022-08-13T05:58:58.121Z,29.26
2022-08-13T05:59:43.435Z,29.26
2022-08-13T06:00:28.983Z,29.27
2022-08-13T06:01:12.005Z,29.28
2022-08-13T06:01:57.105Z,29.33
2022-08-13T06:02:38.201Z,29.32
2022-08-13T06:04:15.796Z,29.30
2022-08-13T06:04:36.991Z,29.25
2022-08-13T06:05:03.926Z,29.26
2022-08-13T06:05:46.331Z,29.27
2022-08-13T06:06:14.207Z,29.22